Time;durP1;ratioP1;P1;durP2;ratioP2;P2;SDS_P1;SDS_P2;PMS_P1;PMS_P2;Temp;Humidity;BMP_temperature;BMP_pressure;BME280_temperature;BME280_humidity;BME280_pressure;Samples;Min_cycle;Max_cycle;Signal;HPM_P1;HPM_P2
2021/09/26 00:01:54;;;;;;;9.07;5.45;;;20.50;92.40;;;;;;5088713;28;20484;-60
2021/09/26 00:04:20;;;;;;;7.82;5.47;;;20.50;92.50;;;;;;5084047;28;20025;-60
2021/09/26 00:06:45;;;;;;;7.00;4.82;;;20.40;92.60;;;;;;5079622;28;20028;-61
2021/09/26 00:09:11;;;;;;;7.78;5.47;;;20.40;92.70;;;;;;5083573;28;20108;-60
2021/09/26 00:11:36;;;;;;;8.30;5.38;;;20.40;92.70;;;;;;5079460;28;20032;-61
2021/09/26 00:14:02;;;;;;;7.80;5.40;;;20.40;92.80;;;;;;5081558;28;20448;-60
2021/09/26 00:16:27;;;;;;;6.35;5.55;;;20.40;92.80;;;;;;5088545;28;20021;-60
2021/09/26 00:18:53;;;;;;;8.65;5.30;;;20.40;92.80;;;;;;5086113;28;20033;-60
2021/09/26 00:21:18;;;;;;;6.22;5.10;;;20.30;92.80;;;;;;5071125;28;20325;-60
2021/09/26 00:23:44;;;;;;;8.10;5.90;;;20.30;92.90;;;;;;5071454;28;20403;-61
2021/09/26 00:26:09;;;;;;;8.15;5.55;;;20.30;92.80;;;;;;5087220;28;20107;-60
2021/09/26 00:28:36;;;;;;;9.15;4.90;;;20.30;92.90;;;;;;5071542;28;20024;-60
2021/09/26 00:31:02;;;;;;;7.97;5.30;;;20.30;93.00;;;;;;5075052;28;20032;-60
2021/09/26 00:33:28;;;;;;;7.35;4.97;;;20.20;92.90;;;;;;5071819;28;20349;-60
2021/09/26 00:35:53;;;;;;;7.53;5.80;;;20.30;93.00;;;;;;5081646;28;20043;-61
2021/09/26 00:38:19;;;;;;;6.05;5.00;;;20.30;93.00;;;;;;5079361;28;20498;-61
2021/09/26 00:40:46;;;;;;;8.40;5.57;;;20.30;93.10;;;;;;5057089;28;20056;-61
2021/09/26 00:43:11;;;;;;;6.28;5.38;;;20.30;93.10;;;;;;5063571;28;20541;-61
2021/09/26 00:45:37;;;;;;;8.70;5.80;;;20.20;93.20;;;;;;5076657;28;20111;-60
2021/09/26 00:48:03;;;;;;;7.00;5.10;;;20.20;93.30;;;;;;5080601;28;20040;-60
2021/09/26 00:50:28;;;;;;;6.50;5.47;;;20.20;93.20;;;;;;5067895;28;20036;-61
2021/09/26 00:52:54;;;;;;;8.07;5.35;;;20.20;93.30;;;;;;5079262;28;20098;-60
2021/09/26 00:55:19;;;;;;;6.57;5.47;;;20.20;93.40;;;;;;5084262;28;20027;-60
2021/09/26 00:57:45;;;;;;;7.63;5.78;;;20.20;93.40;;;;;;5067820;28;20036;-60
2021/09/26 01:00:13;;;;;;;6.80;5.50;;;20.10;93.40;;;;;;5068985;28;20034;-60
2021/09/26 01:02:39;;;;;;;8.68;5.68;;;20.10;93.50;;;;;;5078226;28;20548;-61
2021/09/26 01:05:06;;;;;;;6.57;5.25;;;20.10;93.50;;;;;;5085703;28;20114;-60
2021/09/26 01:07:44;;;;;;;7.25;5.18;;;20.10;93.50;;;;;;5069589;28;20036;-60
2021/09/26 01:10:12;;;;;;;6.20;5.20;;;20.10;93.60;;;;;;5080616;28;20499;-61
2021/09/26 01:13:07;;;;;;;6.32;5.28;;;20.10;93.60;;;;;;5071330;28;20178;-60
2021/09/26 01:16:02;;;;;;;7.15;5.57;;;20.00;93.90;;;;;;5065457;28;20588;-60
2021/09/26 01:18:50;;;;;;;7.07;5.47;;;20.00;93.70;;;;;;5063222;28;20020;-60
2021/09/26 01:21:21;;;;;;;7.32;5.72;;;19.80;93.60;;;;;;5067643;28;20452;-60
2021/09/26 01:24:13;;;;;;;7.95;5.45;;;20.00;93.60;;;;;;5083910;28;20054;-60
2021/09/26 01:27:12;;;;;;;6.68;5.88;;;20.00;93.70;;;;;;5084980;28;20024;-60
2021/09/26 01:30:15;;;;;;;9.10;5.57;;;20.00;93.70;;;;;;5058655;28;20558;-60
2021/09/26 01:32:42;;;;;;;6.50;5.43;;;19.80;93.70;;;;;;5075755;28;20119;-61
2021/09/26 01:35:09;;;;;;;6.18;5.57;;;19.90;93.80;;;;;;5068670;28;20020;-60
2021/09/26 01:37:41;;;;;;;6.82;5.63;;;19.90;93.80;;;;;;5050006;28;20472;-61
2021/09/26 01:40:16;;;;;;;7.45;5.28;;;19.90;93.90;;;;;;5077243;28;20040;-60
2021/09/26 01:42:49;;;;;;;8.15;5.40;;;19.90;93.90;;;;;;5082133;28;20021;-61
2021/09/26 01:45:21;;;;;;;6.90;5.45;;;19.90;94.00;;;;;;5063984;28;20020;-60
2021/09/26 01:47:51;;;;;;;8.35;5.82;;;19.80;94.00;;;;;;5065548;28;20025;-60
2021/09/26 01:50:16;;;;;;;6.40;5.80;;;19.80;94.00;;;;;;5051635;28;20047;-61
2021/09/26 01:52:45;;;;;;;10.30;6.00;;;19.80;94.00;;;;;;5061941;28;20502;-60
2021/09/26 01:55:10;;;;;;;6.68;5.65;;;19.80;94.00;;;;;;5049766;28;20653;-60
2021/09/26 01:57:39;;;;;;;7.47;5.43;;;19.80;94.00;;;;;;5063482;28;20062;-60
2021/09/26 02:00:05;;;;;;;7.40;5.05;;;19.80;94.00;;;;;;5083792;28;20422;-60
2021/09/26 02:02:31;;;;;;;7.72;5.55;;;19.70;94.10;;;;;;5082467;28;20104;-60
2021/09/26 02:04:59;;;;;;;9.05;5.50;;;19.70;94.10;;;;;;5049468;28;20103;-61
2021/09/26 02:07:32;;;;;;;7.18;5.78;;;19.70;94.10;;;;;;5074669;28;20027;-60
2021/09/26 02:09:57;;;;;;;6.88;6.03;;;19.70;94.20;;;;;;5079526;28;20440;-60
2021/09/26 02:12:23;;;;;;;5.80;5.15;;;19.60;94.20;;;;;;5059206;28;20067;-60
2021/09/26 02:14:50;;;;;;;6.80;5.53;;;19.60;94.20;;;;;;5042108;28;20021;-60
2021/09/26 02:17:15;;;;;;;6.18;5.57;;;19.60;94.20;;;;;;5085459;28;20406;-60
2021/09/26 02:19:41;;;;;;;11.10;5.97;;;19.60;94.30;;;;;;5061806;28;20039;-61
2021/09/26 02:22:07;;;;;;;8.32;5.72;;;19.60;94.30;;;;;;5065144;28;20036;-60
2021/09/26 02:24:37;;;;;;;5.85;5.15;;;19.50;94.30;;;;;;5078809;28;20044;-61
2021/09/26 02:27:02;;;;;;;7.32;5.30;;;19.50;94.30;;;;;;5064641;28;20020;-60
2021/09/26 02:29:28;;;;;;;8.18;5.53;;;19.50;94.40;;;;;;5078898;28;20482;-60
2021/09/26 02:31:53;;;;;;;7.30;5.35;;;19.50;94.40;;;;;;5073202;28;20028;-60
2021/09/26 02:34:19;;;;;;;12.15;5.95;;;19.50;94.40;;;;;;5085813;28;20016;-60
2021/09/26 02:36:45;;;;;;;8.32;5.53;;;19.40;94.30;;;;;;5073216;28;20077;-61
2021/09/26 02:39:12;;;;;;;7.68;5.72;;;19.40;94.60;;;;;;5079850;28;20147;-60
2021/09/26 02:41:59;;;;;;;9.48;5.95;;;19.50;94.30;;;;;;5063141;28;20125;-60
2021/09/26 02:44:46;;;;;;;6.20;5.60;;;19.50;94.30;;;;;;5074400;28;20027;-61
2021/09/26 02:47:14;;;;;;;6.22;5.60;;;19.50;94.30;;;;;;5068567;28;20024;-60
2021/09/26 02:49:40;;;;;;;6.28;5.68;;;19.40;94.30;;;;;;5051975;28;20089;-61
2021/09/26 02:52:07;;;;;;;7.63;6.30;;;19.40;94.40;;;;;;5063057;28;20040;-60
2021/09/26 02:54:37;;;;;;;6.97;5.60;;;19.30;94.40;;;;;;5091000;28;20016;-60
2021/09/26 02:57:03;;;;;;;7.07;5.63;;;19.30;94.50;;;;;;5072152;28;20042;-60
2021/09/26 02:59:29;;;;;;;8.23;5.80;;;19.30;94.50;;;;;;5067319;28;20206;-61
2021/09/26 03:01:54;;;;;;;7.85;5.93;;;19.30;94.40;;;;;;5082440;28;20037;-60
2021/09/26 03:04:20;;;;;;;7.47;5.95;;;19.30;94.50;;;;;;5086566;28;20028;-60
2021/09/26 03:06:46;;;;;;;7.78;6.00;;;19.30;94.40;;;;;;5086652;28;20029;-61
2021/09/26 03:09:11;;;;;;;6.85;6.03;;;19.30;94.50;;;;;;5076353;28;20076;-60
2021/09/26 03:11:37;;;;;;;8.23;6.07;;;19.20;94.50;;;;;;5088814;28;20028;-60
2021/09/26 03:14:02;;;;;;;6.35;5.82;;;19.20;94.50;;;;;;5066458;28;20054;-60
2021/09/26 03:16:28;;;;;;;7.80;5.45;;;19.20;94.50;;;;;;5084403;28;20479;-60
2021/09/26 03:18:53;;;;;;;7.55;6.15;;;19.20;94.50;;;;;;5097645;28;20214;-60
2021/09/26 03:21:19;;;;;;;7.95;6.32;;;19.10;94.50;;;;;;5084960;28;20035;-60
2021/09/26 03:23:44;;;;;;;7.30;5.53;;;19.20;94.50;;;;;;5094413;28;20055;-60
2021/09/26 03:26:10;;;;;;;6.32;5.72;;;19.10;94.40;;;;;;5089257;28;20016;-60
2021/09/26 03:28:36;;;;;;;7.97;5.78;;;19.10;94.50;;;;;;5075335;28;20608;-60
2021/09/26 03:31:01;;;;;;;6.00;5.40;;;19.10;94.50;;;;;;5087462;28;20833;-60
2021/09/26 03:33:27;;;;;;;5.78;5.20;;;19.10;94.60;;;;;;5091786;28;20023;-61
2021/09/26 03:35:52;;;;;;;8.10;5.70;;;19.10;94.60;;;;;;5078168;28;20051;-60
2021/09/26 03:38:18;;;;;;;7.82;6.35;;;19.10;94.60;;;;;;5078076;28;20028;-60
2021/09/26 03:40:43;;;;;;;7.30;5.72;;;19.10;94.60;;;;;;5077899;28;20356;-61
2021/09/26 03:43:09;;;;;;;6.50;5.90;;;19.10;94.60;;;;;;5068918;28;20506;-61
2021/09/26 03:45:34;;;;;;;6.40;5.75;;;19.10;94.60;;;;;;5072133;28;20031;-61
2021/09/26 03:48:00;;;;;;;7.47;5.53;;;19.00;94.60;;;;;;5071934;28;20021;-60
2021/09/26 03:50:25;;;;;;;7.68;6.50;;;19.00;94.70;;;;;;5095334;28;20024;-60
2021/09/26 03:52:51;;;;;;;7.03;5.47;;;19.00;94.60;;;;;;5049369;28;20021;-61
2021/09/26 03:55:17;;;;;;;8.45;6.25;;;19.00;94.60;;;;;;5072320;28;20123;-60
2021/09/26 03:57:42;;;;;;;7.25;5.45;;;19.00;94.70;;;;;;5072809;28;20071;-60
2021/09/26 04:00:09;;;;;;;6.95;5.72;;;18.90;94.70;;;;;;5076885;28;20106;-60
2021/09/26 04:02:35;;;;;;;7.45;5.88;;;18.90;94.70;;;;;;5062854;28;20436;-60
2021/09/26 04:05:00;;;;;;;8.88;6.60;;;18.90;94.70;;;;;;5082219;28;20111;-60
2021/09/26 04:07:26;;;;;;;6.32;5.53;;;18.90;94.70;;;;;;5080139;28;20105;-61
2021/09/26 04:09:51;;;;;;;6.65;5.95;;;18.80;94.70;;;;;;5084581;28;20159;-61
2021/09/26 04:12:17;;;;;;;6.68;5.97;;;18.90;94.70;;;;;;5083305;28;20209;-60
2021/09/26 04:14:42;;;;;;;6.55;5.85;;;18.90;94.80;;;;;;5085883;28;20474;-60
2021/09/26 04:17:08;;;;;;;7.43;6.00;;;18.90;94.80;;;;;;5062912;28;20024;-61
2021/09/26 04:19:34;;;;;;;6.90;5.70;;;18.90;94.90;;;;;;5084877;28;20055;-61
2021/09/26 04:21:59;;;;;;;6.35;5.75;;;18.80;94.90;;;;;;5081714;28;20378;-61
2021/09/26 04:24:25;;;;;;;8.10;5.85;;;18.80;94.90;;;;;;5087669;28;20048;-60
2021/09/26 04:26:50;;;;;;;7.38;6.38;;;18.80;95.00;;;;;;5088988;28;20047;-61
2021/09/26 04:29:16;;;;;;;6.13;5.45;;;18.80;94.90;;;;;;5083210;28;20156;-61
2021/09/26 04:31:42;;;;;;;6.38;5.68;;;18.80;94.90;;;;;;5081598;28;20033;-61
2021/09/26 04:34:07;;;;;;;7.70;5.60;;;18.60;94.90;;;;;;5087915;28;20020;-61
2021/09/26 04:36:33;;;;;;;7.10;5.75;;;18.80;95.00;;;;;;5055735;28;20128;-61
2021/09/26 04:38:58;;;;;;;7.20;5.55;;;18.70;94.90;;;;;;5083313;28;20032;-60
2021/09/26 04:41:24;;;;;;;8.48;5.45;;;18.70;94.90;;;;;;5077758;28;20043;-61
2021/09/26 04:43:49;;;;;;;11.45;5.78;;;18.70;94.90;;;;;;5092688;28;20379;-60
2021/09/26 04:46:15;;;;;;;11.27;6.38;;;18.70;94.90;;;;;;5074019;28;20040;-61
2021/09/26 04:48:40;;;;;;;21.70;5.97;;;18.70;94.90;;;;;;5076021;28;20032;-60
2021/09/26 04:51:06;;;;;;;20.02;6.93;;;18.70;94.90;;;;;;5090548;28;20040;-60
2021/09/26 04:53:31;;;;;;;99.47;12.57;;;18.70;95.00;;;;;;5093420;28;20059;-61
2021/09/26 04:55:58;;;;;;;68.18;9.15;;;18.70;95.00;;;;;;5085923;28;20119;-60
2021/09/26 04:58:23;;;;;;;33.60;6.70;;;18.70;95.00;;;;;;5081323;28;20020;-60
2021/09/26 05:00:50;;;;;;;22.60;7.15;;;18.80;95.00;;;;;;5089244;28;20039;-60
2021/09/26 05:03:16;;;;;;;18.67;6.93;;;18.70;94.90;;;;;;5099258;28;20490;-61
2021/09/26 05:05:41;;;;;;;26.45;6.57;;;18.80;94.90;;;;;;5075759;28;20029;-60
2021/09/26 05:08:07;;;;;;;23.38;7.57;;;18.80;94.90;;;;;;5084496;28;20125;-61
2021/09/26 05:10:32;;;;;;;25.73;6.40;;;18.80;94.90;;;;;;5096835;28;20032;-61
2021/09/26 05:12:58;;;;;;;21.08;6.53;;;18.70;94.90;;;;;;5046498;28;20027;-61
2021/09/26 05:15:24;;;;;;;18.08;6.15;;;18.80;94.90;;;;;;5080740;28;20114;-60
2021/09/26 05:17:49;;;;;;;18.13;6.30;;;18.80;95.00;;;;;;5085687;28;20032;-61
2021/09/26 05:20:15;;;;;;;21.40;7.20;;;18.70;95.00;;;;;;5065267;28;20440;-61
2021/09/26 05:22:40;;;;;;;24.00;6.63;;;18.70;95.20;;;;;;5093133;28;20471;-60
2021/09/26 05:25:06;;;;;;;26.95;7.78;;;18.80;95.30;;;;;;5080181;28;20156;-61
2021/09/26 05:27:32;;;;;;;23.48;7.22;;;18.80;95.50;;;;;;5072873;28;20067;-61
2021/09/26 05:29:57;;;;;;;29.42;9.10;;;18.70;95.60;;;;;;5065356;28;20103;-60
2021/09/26 05:32:23;;;;;;;24.38;8.55;;;18.80;96.10;;;;;;5086372;28;20111;-61
2021/09/26 05:34:48;;;;;;;22.33;8.98;;;18.80;96.10;;;;;;5080572;28;20521;-61
2021/09/26 05:37:14;;;;;;;21.33;8.25;;;18.80;95.70;;;;;;5064908;28;20035;-61
2021/09/26 05:39:39;;;;;;;20.85;10.15;;;18.80;95.70;;;;;;5065325;28;20059;-61
2021/09/26 05:42:06;;;;;;;19.40;9.90;;;18.70;95.70;;;;;;5084547;28;20020;-60
2021/09/26 05:44:33;;;;;;;20.80;10.35;;;18.70;95.80;;;;;;5081595;28;20047;-61
2021/09/26 05:46:58;;;;;;;21.15;9.98;;;18.80;95.90;;;;;;5072402;28;20028;-61
2021/09/26 05:49:24;;;;;;;21.40;9.52;;;18.70;95.70;;;;;;5082140;28;20093;-61
2021/09/26 05:51:49;;;;;;;27.58;9.73;;;18.70;95.80;;;;;;5082297;28;20099;-60
2021/09/26 05:54:15;;;;;;;22.67;9.80;;;18.70;95.90;;;;;;5067316;28;20413;-61
2021/09/26 05:56:40;;;;;;;29.00;11.32;;;18.70;96.00;;;;;;5084463;28;20498;-61
2021/09/26 05:59:06;;;;;;;27.80;10.70;;;18.70;96.20;;;;;;5086892;28;20040;-61
2021/09/26 06:01:31;;;;;;;25.27;10.70;;;18.60;96.20;;;;;;5092352;28;20040;-61
2021/09/26 06:03:57;;;;;;;28.27;10.00;;;18.60;96.10;;;;;;5079053;28;20024;-61
2021/09/26 06:06:22;;;;;;;13.73;9.85;;;18.70;96.20;;;;;;5087681;28;20034;-61
2021/09/26 06:08:48;;;;;;;23.70;9.93;;;18.70;96.40;;;;;;5080577;28;20045;-61
2021/09/26 06:11:13;;;;;;;16.73;9.60;;;18.70;96.20;;;;;;5092460;28;20414;-60
2021/09/26 06:13:39;;;;;;;17.92;8.82;;;18.70;96.10;;;;;;5097967;28;20435;-61
2021/09/26 06:16:05;;;;;;;21.17;9.77;;;18.70;96.20;;;;;;5092490;28;20179;-60
2021/09/26 06:18:30;;;;;;;14.32;9.57;;;18.70;96.20;;;;;;5097586;28;20099;-60
2021/09/26 06:20:56;;;;;;;21.52;8.70;;;18.70;96.50;;;;;;5086619;28;20107;-61
2021/09/26 06:23:21;;;;;;;16.00;9.93;;;18.70;96.20;;;;;;5087352;28;20103;-61
2021/09/26 06:25:47;;;;;;;21.27;9.45;;;18.60;96.30;;;;;;5063108;28;20040;-60
2021/09/26 06:28:13;;;;;;;14.35;9.23;;;18.70;96.40;;;;;;5097800;28;20089;-61
2021/09/26 06:30:38;;;;;;;14.63;9.93;;;18.70;96.40;;;;;;5087144;28;20112;-60
2021/09/26 06:33:04;;;;;;;17.83;10.25;;;18.60;96.50;;;;;;5093414;28;20024;-60
2021/09/26 06:35:30;;;;;;;17.20;9.95;;;18.60;96.50;;;;;;5059401;28;20032;-61
2021/09/26 06:37:55;;;;;;;19.98;11.48;;;18.70;96.60;;;;;;5066405;28;20047;-61
2021/09/26 06:40:21;;;;;;;20.17;11.85;;;18.70;96.70;;;;;;5083574;28;20106;-60
2021/09/26 06:42:47;;;;;;;20.05;12.45;;;18.70;96.80;;;;;;5093790;28;20102;-60
2021/09/26 06:45:12;;;;;;;17.92;10.48;;;18.70;96.90;;;;;;5078591;28;20540;-60
2021/09/26 06:47:38;;;;;;;21.58;11.15;;;18.70;96.90;;;;;;5065632;28;20055;-60
2021/09/26 06:50:04;;;;;;;39.25;13.15;;;18.70;97.00;;;;;;5066340;28;20043;-61
2021/09/26 06:52:30;;;;;;;16.67;11.52;;;18.70;97.00;;;;;;5057479;28;20048;-60
2021/09/26 06:54:55;;;;;;;15.68;10.63;;;18.80;97.10;;;;;;5086744;28;20059;-61
2021/09/26 06:57:21;;;;;;;18.13;11.00;;;18.80;97.10;;;;;;5091156;28;20119;-61
2021/09/26 06:59:47;;;;;;;19.50;11.77;;;18.70;97.00;;;;;;5085537;28;20481;-61
2021/09/26 07:02:13;;;;;;;18.40;11.20;;;18.80;97.10;;;;;;5076840;28;20094;-60
2021/09/26 07:04:38;;;;;;;21.55;10.30;;;18.80;97.10;;;;;;5074615;28;20033;-61
2021/09/26 07:07:04;;;;;;;17.15;10.85;;;18.80;97.20;;;;;;5051157;28;20033;-61
2021/09/26 07:09:30;;;;;;;20.67;10.70;;;18.80;97.20;;;;;;5079934;28;20438;-61
2021/09/26 07:11:55;;;;;;;26.88;11.57;;;18.80;97.10;;;;;;5073704;28;20537;-60
2021/09/26 07:14:21;;;;;;;15.07;10.57;;;18.80;97.40;;;;;;5097652;28;20526;-60
2021/09/26 07:16:46;;;;;;;14.75;11.18;;;18.80;97.50;;;;;;5082870;28;20115;-61
2021/09/26 07:19:15;;;;;;;18.60;10.30;;;18.80;97.50;;;;;;5074477;28;20477;-61
2021/09/26 07:21:41;;;;;;;11.52;8.98;;;18.80;97.50;;;;;;5085953;28;20055;-61
2021/09/26 07:24:06;;;;;;;14.10;8.27;;;18.80;97.50;;;;;;5083674;28;20423;-60
2021/09/26 07:26:32;;;;;;;11.10;8.68;;;18.90;97.70;;;;;;5080743;28;20388;-61
2021/09/26 07:28:57;;;;;;;15.82;9.23;;;18.90;97.80;;;;;;5082030;28;20047;-60
2021/09/26 07:31:23;;;;;;;16.88;8.65;;;18.90;97.80;;;;;;5083618;28;20029;-61
2021/09/26 07:33:50;;;;;;;18.25;8.85;;;18.90;97.80;;;;;;5066642;28;20027;-60
2021/09/26 07:36:16;;;;;;;11.35;7.88;;;18.90;97.70;;;;;;5067201;28;20047;-60
2021/09/26 07:38:42;;;;;;;12.43;8.13;;;18.90;97.70;;;;;;5077213;28;20024;-60
2021/09/26 07:41:07;;;;;;;15.32;8.02;;;18.90;97.50;;;;;;5054312;28;20037;-60
2021/09/26 07:43:33;;;;;;;11.00;7.75;;;19.00;97.80;;;;;;5078181;28;20177;-61
2021/09/26 07:45:58;;;;;;;12.60;7.32;;;19.00;97.80;;;;;;5091823;28;20044;-60
2021/09/26 07:48:24;;;;;;;15.20;7.90;;;19.00;97.90;;;;;;5078597;28;20060;-61
2021/09/26 07:50:51;;;;;;;16.75;7.95;;;19.00;97.80;;;;;;5075596;28;20494;-61
2021/09/26 07:53:17;;;;;;;12.77;8.43;;;19.00;97.90;;;;;;5058275;28;20025;-61
2021/09/26 07:55:42;;;;;;;10.90;7.63;;;19.00;97.70;;;;;;5070610;28;20043;-61
2021/09/26 07:58:08;;;;;;;15.93;7.78;;;19.00;97.70;;;;;;5083019;28;20029;-61
2021/09/26 08:00:33;;;;;;;11.63;7.72;;;19.00;97.70;;;;;;5072910;28;20031;-61
2021/09/26 08:02:59;;;;;;;93.07;14.38;;;19.10;97.60;;;;;;5084775;28;20042;-63
2021/09/26 08:05:24;;;;;;;50.63;10.77;;;19.00;97.80;;;;;;5070831;28;20038;-61
2021/09/26 08:07:50;;;;;;;32.63;9.60;;;19.10;97.90;;;;;;5059712;28;20044;-60
2021/09/26 08:10:15;;;;;;;19.83;8.73;;;19.10;97.70;;;;;;5085718;28;20100;-61
2021/09/26 08:12:41;;;;;;;24.75;8.73;;;19.00;97.80;;;;;;5074681;28;20515;-62
2021/09/26 08:15:07;;;;;;;20.15;9.13;;;19.10;98.20;;;;;;5065559;28;20153;-60
2021/09/26 08:17:32;;;;;;;30.95;9.52;;;19.10;98.30;;;;;;5062269;28;20731;-60
2021/09/26 08:19:58;;;;;;;27.25;10.10;;;19.10;98.40;;;;;;5050004;28;20020;-60
2021/09/26 08:22:24;;;;;;;29.88;9.70;;;19.10;98.40;;;;;;5072511;28;20024;-60
2021/09/26 08:24:50;;;;;;;28.70;9.60;;;19.10;98.40;;;;;;5086180;28;20039;-61
2021/09/26 08:27:17;;;;;;;31.17;9.20;;;19.10;98.50;;;;;;5083210;28;20028;-60
2021/09/26 08:29:43;;;;;;;36.03;9.70;;;19.20;98.50;;;;;;5084284;28;20468;-60
2021/09/26 08:32:09;;;;;;;41.30;9.77;;;19.20;98.70;;;;;;5084299;28;20024;-60
2021/09/26 08:34:34;;;;;;;65.18;12.40;;;19.20;98.70;;;;;;5068312;28;20098;-60
2021/09/26 08:37:00;;;;;;;36.25;11.13;;;19.20;98.70;;;;;;5081757;28;20024;-60
2021/09/26 08:39:25;;;;;;;43.08;10.27;;;19.20;98.60;;;;;;5073663;28;20042;-60
2021/09/26 08:41:52;;;;;;;51.20;11.55;;;19.20;98.50;;;;;;5086798;28;20036;-61
2021/09/26 08:44:21;;;;;;;58.55;11.48;;;19.20;98.40;;;;;;5049311;28;20020;-61
2021/09/26 08:46:46;;;;;;;56.03;11.95;;;19.30;98.70;;;;;;5085537;28;20098;-61
2021/09/26 08:49:12;;;;;;;76.20;12.75;;;19.30;98.80;;;;;;5045573;28;20487;-60
2021/09/26 08:51:37;;;;;;;56.80;11.88;;;19.30;98.90;;;;;;5075614;28;20210;-61
2021/09/26 08:54:03;;;;;;;58.55;13.07;;;19.30;98.90;;;;;;5068406;28;20115;-60
2021/09/26 08:56:28;;;;;;;58.28;12.15;;;19.30;99.00;;;;;;5084053;28;20032;-60
2021/09/26 08:58:54;;;;;;;75.35;13.23;;;19.40;98.90;;;;;;5063609;28;20461;-60
2021/09/26 09:01:19;;;;;;;59.22;12.68;;;19.40;98.90;;;;;;5081954;28;20046;-60
2021/09/26 09:03:47;;;;;;;63.30;12.65;;;19.40;98.80;;;;;;5086446;28;20099;-60
2021/09/26 09:06:13;;;;;;;71.68;12.77;;;19.40;99.00;;;;;;5088998;28;20020;-60
2021/09/26 09:08:39;;;;;;;92.07;14.73;;;19.50;98.90;;;;;;5069729;28;20115;-60
2021/09/26 09:11:04;;;;;;;75.32;14.43;;;19.50;99.10;;;;;;5047105;28;20067;-60
2021/09/26 09:13:31;;;;;;;80.13;13.85;;;19.50;98.90;;;;;;5065918;28;20043;-60
2021/09/26 09:16:02;;;;;;;86.40;15.85;;;19.50;98.90;;;;;;5070852;28;20032;-60
2021/09/26 09:18:50;;;;;;;83.50;15.38;;;19.50;98.80;;;;;;5043681;28;20135;-60
2021/09/26 09:21:36;;;;;;;76.68;14.65;;;19.60;99.20;;;;;;5075752;28;20040;-61
2021/09/26 09:24:27;;;;;;;91.28;15.18;;;19.60;99.40;;;;;;5082482;28;20201;-60
2021/09/26 09:26:53;;;;;;;100.53;17.40;;;19.70;99.50;;;;;;5073224;28;20040;-60
2021/09/26 09:29:23;;;;;;;105.95;16.95;;;19.70;99.60;;;;;;5059732;28;20038;-60
2021/09/26 09:31:59;;;;;;;94.60;15.68;;;19.70;99.80;;;;;;5078334;28;20097;-60
2021/09/26 09:34:34;;;;;;;106.97;15.88;;;19.70;99.70;;;;;;5047576;28;20020;-60
2021/09/26 09:37:25;;;;;;;111.47;18.13;;;19.80;99.60;;;;;;5061259;28;20110;-60
2021/09/26 09:40:15;;;;;;;100.70;16.42;;;19.80;99.70;;;;;;5083721;28;20113;-61
2021/09/26 09:42:52;;;;;;;122.90;19.27;;;19.90;99.70;;;;;;5058769;28;20038;-60
2021/09/26 09:45:29;;;;;;;122.63;19.13;;;19.90;99.50;;;;;;5063144;28;20052;-61
2021/09/26 09:48:00;;;;;;;111.00;18.33;;;20.00;99.50;;;;;;5076624;28;20069;-61
2021/09/26 09:50:58;;;;;;;111.65;19.52;;;20.00;99.30;;;;;;5078716;28;20597;-61
2021/09/26 09:53:33;;;;;;;129.57;18.75;;;20.00;99.10;;;;;;5092267;27;20048;-60
2021/09/26 09:55:58;;;;;;;120.73;18.73;;;20.10;99.10;;;;;;5074236;28;20090;-60
2021/09/26 09:58:24;;;;;;;115.60;19.15;;;20.10;99.10;;;;;;5078603;28;20464;-60
2021/09/26 10:00:56;;;;;;;121.85;20.02;;;20.10;99.10;;;;;;5062411;28;20027;-61
2021/09/26 10:03:33;;;;;;;129.32;19.50;;;20.10;98.70;;;;;;5077965;28;20427;-61
2021/09/26 10:05:59;;;;;;;114.32;17.15;;;20.20;98.60;;;;;;5063358;28;20056;-60
2021/09/26 10:08:34;;;;;;;131.02;19.40;;;20.30;98.50;;;;;;5053390;28;20059;-61
2021/09/26 10:11:05;;;;;;;114.57;19.90;;;20.30;98.40;;;;;;5055972;28;20032;-61
2021/09/26 10:13:30;;;;;;;113.00;19.30;;;20.30;98.50;;;;;;5096639;28;20031;-60
2021/09/26 10:15:56;;;;;;;144.52;19.92;;;20.40;98.40;;;;;;5070043;28;20028;-61
2021/09/26 10:18:21;;;;;;;139.68;18.05;;;20.40;98.20;;;;;;5076725;28;20069;-60
2021/09/26 10:20:47;;;;;;;124.60;18.67;;;20.40;98.10;;;;;;5056386;28;20043;-60
2021/09/26 10:23:12;;;;;;;116.80;18.50;;;20.50;98.20;;;;;;5063234;28;20028;-60
2021/09/26 10:25:38;;;;;;;158.93;23.80;;;20.50;98.00;;;;;;5049067;28;20173;-61
2021/09/26 10:28:04;;;;;;;173.48;22.73;;;20.50;98.00;;;;;;5066005;28;20027;-60
2021/09/26 10:30:29;;;;;;;119.68;19.50;;;20.60;97.80;;;;;;5042291;28;20024;-61
2021/09/26 10:32:56;;;;;;;146.35;22.17;;;20.60;97.60;;;;;;5057994;28;20503;-61
2021/09/26 10:35:22;;;;;;;123.38;18.63;;;20.70;97.50;;;;;;5077638;28;20039;-62
2021/09/26 10:37:48;;;;;;;138.88;19.25;;;20.60;97.40;;;;;;5065407;28;20108;-61
2021/09/26 10:40:14;;;;;;;140.80;21.73;;;20.70;97.30;;;;;;5060789;28;20089;-61
2021/09/26 10:42:40;;;;;;;138.23;19.92;;;20.70;97.10;;;;;;5052242;28;20100;-61
2021/09/26 10:45:07;;;;;;;121.57;19.27;;;20.70;96.90;;;;;;5063185;28;20304;-61
2021/09/26 10:47:33;;;;;;;107.63;18.70;;;20.70;96.80;;;;;;5084957;28;20559;-61
2021/09/26 10:50:14;;;;;;;142.82;19.58;;;20.70;96.90;;;;;;5080253;28;20032;-62
2021/09/26 10:52:44;;;;;;;141.00;19.88;;;20.70;96.80;;;;;;5067508;28;20024;-61
2021/09/26 10:55:16;;;;;;;134.75;21.20;;;20.80;96.80;;;;;;5051524;28;20008;-61
2021/09/26 10:57:44;;;;;;;146.57;20.70;;;20.90;96.70;;;;;;5075760;28;20027;-61
2021/09/26 11:00:10;;;;;;;148.80;19.55;;;20.90;96.60;;;;;;5064103;28;20052;-61
2021/09/26 11:02:37;;;;;;;158.80;22.45;;;20.90;96.40;;;;;;5053516;28;20024;-61
2021/09/26 11:05:04;;;;;;;140.80;20.38;;;20.90;96.20;;;;;;5084894;28;20053;-60
2021/09/26 11:07:31;;;;;;;136.30;21.25;;;20.90;96.10;;;;;;5049768;28;20028;-61
2021/09/26 11:10:05;;;;;;;137.13;19.55;;;20.90;95.70;;;;;;5080417;28;20024;-62
2021/09/26 11:12:48;;;;;;;161.77;20.30;;;20.90;95.60;;;;;;5084060;28;20012;-61
2021/09/26 11:15:17;;;;;;;127.18;19.15;;;21.00;95.60;;;;;;5055574;28;20033;-61
2021/09/26 11:17:47;;;;;;;135.45;19.48;;;21.00;95.60;;;;;;5081855;28;20032;-61
2021/09/26 11:20:33;;;;;;;125.90;19.48;;;21.00;95.50;;;;;;5081166;28;20033;-61
2021/09/26 11:23:08;;;;;;;117.95;18.15;;;21.00;95.50;;;;;;5060361;28;20046;-61
2021/09/26 11:25:55;;;;;;;116.95;18.08;;;21.00;95.50;;;;;;5081449;28;20028;-61
2021/09/26 11:28:28;;;;;;;133.18;20.35;;;21.00;95.50;;;;;;5085097;28;20107;-60
2021/09/26 11:30:54;;;;;;;119.55;19.20;;;21.00;95.40;;;;;;5083586;28;20039;-60
2021/09/26 11:33:19;;;;;;;115.78;17.92;;;21.00;95.40;;;;;;5053285;28;20024;-61
2021/09/26 11:35:45;;;;;;;139.18;18.63;;;21.00;95.20;;;;;;5067222;28;20028;-61
2021/09/26 11:38:13;;;;;;;132.05;18.50;;;21.00;95.20;;;;;;5064697;28;20047;-61
2021/09/26 11:41:03;;;;;;;142.18;20.17;;;21.00;95.30;;;;;;5080116;28;20123;-61
2021/09/26 11:43:30;;;;;;;124.72;18.10;;;21.10;95.30;;;;;;5044952;28;20033;-61
2021/09/26 11:45:57;;;;;;;130.90;20.63;;;21.10;95.10;;;;;;5086490;28;20032;-61
2021/09/26 11:48:36;;;;;;;136.13;19.55;;;21.10;94.90;;;;;;5079995;28;20016;-61
2021/09/26 11:51:03;;;;;;;115.80;17.42;;;21.10;94.90;;;;;;5066493;28;20146;-61
2021/09/26 11:53:29;;;;;;;133.40;19.50;;;21.20;94.90;;;;;;5068818;28;20056;-60
2021/09/26 11:55:54;;;;;;;119.38;18.77;;;21.10;94.80;;;;;;5077048;28;20067;-62
2021/09/26 11:58:20;;;;;;;128.95;18.45;;;21.10;94.60;;;;;;5062105;28;20099;-61
2021/09/26 12:00:45;;;;;;;126.32;18.58;;;21.10;94.60;;;;;;5075387;28;20537;-61
2021/09/26 12:03:23;;;;;;;137.63;18.67;;;21.10;94.50;;;;;;5059078;28;20040;-61
2021/09/26 12:05:48;;;;;;;125.53;19.20;;;21.10;94.70;;;;;;5078073;28;20131;-61
2021/09/26 12:08:14;;;;;;;134.55;19.63;;;21.10;94.60;;;;;;5066871;28;20036;-61
2021/09/26 12:10:40;;;;;;;131.70;19.52;;;21.10;94.50;;;;;;5077842;28;20519;-61
2021/09/26 12:13:21;;;;;;;121.65;18.88;;;21.20;94.40;;;;;;5076542;28;20167;-61
2021/09/26 12:15:47;;;;;;;146.25;18.98;;;21.10;94.10;;;;;;5084060;28;20036;-61
2021/09/26 12:18:24;;;;;;;124.75;18.52;;;21.10;94.10;;;;;;5063377;28;20024;-61
2021/09/26 12:21:09;;;;;;;119.13;19.85;;;21.20;94.20;;;;;;5074754;28;20082;-60
2021/09/26 12:24:08;;;;;;;130.13;19.40;;;21.20;94.10;;;;;;5062782;28;20032;-61
2021/09/26 12:26:39;;;;;;;133.20;18.88;;;21.20;94.20;;;;;;5026044;28;20401;-61
2021/09/26 12:29:07;;;;;;;153.93;19.88;;;21.20;94.20;;;;;;5064995;28;20040;-60
2021/09/26 12:31:33;;;;;;;166.13;19.92;;;21.20;94.40;;;;;;5083685;28;20032;-61
2021/09/26 12:33:59;;;;;;;104.88;17.75;;;21.20;94.20;;;;;;5054411;28;20799;-61
2021/09/26 12:36:28;;;;;;;127.30;19.10;;;21.20;93.90;;;;;;5057287;28;20078;-60
2021/09/26 12:38:54;;;;;;;120.70;17.67;;;21.20;93.90;;;;;;5058447;28;20164;-61